sensor_id;sensor_type;location;lat;lon;timestamp;pressure;altitude;pressure_sealevel;temperature;humidity
18697;BME280;22617;43.690;27.956;2022-07-21T00:03:39;98736.44;;;20.30;56.63
18697;BME280;22617;43.690;27.956;2022-07-21T00:08:45;98730.22;;;20.31;56.10
18697;BME280;22617;43.690;27.956;2022-07-21T00:13:49;98731.34;;;20.44;55.94
18697;BME280;22617;43.690;27.956;2022-07-21T00:18:54;98727.13;;;20.40;55.58
18697;BME280;22617;43.690;27.956;2022-07-21T00:23:59;98728.69;;;20.44;55.61
18697;BME280;22617;43.690;27.956;2022-07-21T00:29:04;98723.38;;;20.44;55.47
18697;BME280;22617;43.690;27.956;2022-07-21T00:34:08;98707.44;;;20.46;55.70
18697;BME280;22617;43.690;27.956;2022-07-21T00:39:14;98705.88;;;20.42;55.86
18697;BME280;22617;43.690;27.956;2022-07-21T00:44:22;98698.69;;;20.44;55.77
18697;BME280;22617;43.690;27.956;2022-07-21T00:49:26;98702.16;;;20.46;56.10
18697;BME280;22617;43.690;27.956;2022-07-21T00:54:31;98689.91;;;20.43;56.05
18697;BME280;22617;43.690;27.956;2022-07-21T00:59:36;98688.63;;;20.52;55.98
18697;BME280;22617;43.690;27.956;2022-07-21T01:04:40;98691.91;;;20.57;55.89
18697;BME280;22617;43.690;27.956;2022-07-21T01:09:46;98684.88;;;20.56;55.69
18697;BME280;22617;43.690;27.956;2022-07-21T01:14:50;98680.28;;;20.60;55.43
18697;BME280;22617;43.690;27.956;2022-07-21T01:19:55;98672.72;;;20.69;55.57
18697;BME280;22617;43.690;27.956;2022-07-21T01:25:01;98669.22;;;20.69;55.67
18697;BME280;22617;43.690;27.956;2022-07-21T01:30:07;98664.84;;;20.68;55.51
18697;BME280;22617;43.690;27.956;2022-07-21T01:35:14;98665.88;;;20.65;55.61
18697;BME280;22617;43.690;27.956;2022-07-21T01:40:20;98670.25;;;20.66;55.31
18697;BME280;22617;43.690;27.956;2022-07-21T01:45:41;98669.00;;;20.56;55.46
18697;BME280;22617;43.690;27.956;2022-07-21T01:50:46;98671.47;;;20.59;55.68
18697;BME280;22617;43.690;27.956;2022-07-21T01:55:51;98668.13;;;20.56;55.45
18697;BME280;22617;43.690;27.956;2022-07-21T02:00:55;98672.22;;;20.44;55.68
18697;BME280;22617;43.690;27.956;2022-07-21T02:06:01;98665.06;;;20.46;56.06
18697;BME280;22617;43.690;27.956;2022-07-21T02:11:07;98665.44;;;20.38;55.79
18697;BME280;22617;43.690;27.956;2022-07-21T02:16:12;98666.72;;;20.30;56.15
18697;BME280;22617;43.690;27.956;2022-07-21T02:21:17;98664.97;;;20.30;56.31
18697;BME280;22617;43.690;27.956;2022-07-21T02:26:22;98679.06;;;20.12;56.94
18697;BME280;22617;43.690;27.956;2022-07-21T02:31:27;98671.50;;;20.05;57.22
18697;BME280;22617;43.690;27.956;2022-07-21T02:36:31;98670.31;;;20.10;57.10
18697;BME280;22617;43.690;27.956;2022-07-21T02:41:37;98675.13;;;20.02;57.47
18697;BME280;22617;43.690;27.956;2022-07-21T02:46:41;98682.41;;;19.97;57.76
18697;BME280;22617;43.690;27.956;2022-07-21T02:51:45;98668.22;;;19.99;57.52
18697;BME280;22617;43.690;27.956;2022-07-21T02:56:51;98671.19;;;20.11;56.92
18697;BME280;22617;43.690;27.956;2022-07-21T03:01:55;98673.81;;;20.11;57.09
18697;BME280;22617;43.690;27.956;2022-07-21T03:07:23;98686.63;;;20.20;57.32
18697;BME280;22617;43.690;27.956;2022-07-21T03:12:29;98681.53;;;20.34;56.71
18697;BME280;22617;43.690;27.956;2022-07-21T03:17:33;98678.16;;;20.49;56.80
18697;BME280;22617;43.690;27.956;2022-07-21T03:22:37;98687.66;;;20.53;56.64
18697;BME280;22617;43.690;27.956;2022-07-21T03:27:43;98685.34;;;20.64;56.86
18697;BME280;22617;43.690;27.956;2022-07-21T03:32:48;98690.94;;;20.58;56.82
18697;BME280;22617;43.690;27.956;2022-07-21T03:37:55;98695.63;;;20.70;56.97
18697;BME280;22617;43.690;27.956;2022-07-21T03:43:02;98701.63;;;20.74;56.96
18697;BME280;22617;43.690;27.956;2022-07-21T03:48:07;98700.47;;;20.79;57.18
18697;BME280;22617;43.690;27.956;2022-07-21T03:53:12;98709.53;;;20.75;57.41
18697;BME280;22617;43.690;27.956;2022-07-21T03:58:18;98715.22;;;20.85;57.14
18697;BME280;22617;43.690;27.956;2022-07-21T04:03:22;98713.25;;;20.88;57.63
18697;BME280;22617;43.690;27.956;2022-07-21T04:08:26;98723.38;;;20.98;57.87
18697;BME280;22617;43.690;27.956;2022-07-21T04:13:32;98714.97;;;21.07;57.55
18697;BME280;22617;43.690;27.956;2022-07-21T04:18:36;98714.97;;;21.07;57.72
18697;BME280;22617;43.690;27.956;2022-07-21T04:23:40;98713.38;;;21.21;57.25
18697;BME280;22617;43.690;27.956;2022-07-21T04:28:47;98708.59;;;21.28;57.87
18697;BME280;22617;43.690;27.956;2022-07-21T04:33:52;98716.53;;;21.45;57.90
18697;BME280;22617;43.690;27.956;2022-07-21T04:38:56;98720.97;;;21.62;57.74
18697;BME280;22617;43.690;27.956;2022-07-21T04:44:02;98718.09;;;21.82;57.70
18697;BME280;22617;43.690;27.956;2022-07-21T04:49:06;98724.91;;;22.03;57.87
18697;BME280;22617;43.690;27.956;2022-07-21T04:54:10;98738.81;;;22.24;57.55
18697;BME280;22617;43.690;27.956;2022-07-21T04:59:18;98736.66;;;22.46;57.37
18697;BME280;22617;43.690;27.956;2022-07-21T05:04:22;98743.41;;;22.68;57.06
18697;BME280;22617;43.690;27.956;2022-07-21T05:09:28;98739.38;;;22.92;57.22
18697;BME280;22617;43.690;27.956;2022-07-21T05:14:33;98751.69;;;23.09;58.05
18697;BME280;22617;43.690;27.956;2022-07-21T05:19:38;98754.09;;;23.27;57.09
18697;BME280;22617;43.690;27.956;2022-07-21T05:24:43;98759.38;;;23.43;57.45
18697;BME280;22617;43.690;27.956;2022-07-21T05:29:49;98776.63;;;23.66;56.40
18697;BME280;22617;43.690;27.956;2022-07-21T05:34:53;98775.13;;;23.90;56.59
18697;BME280;22617;43.690;27.956;2022-07-21T05:39:58;98775.69;;;24.09;56.34
18697;BME280;22617;43.690;27.956;2022-07-21T05:45:06;98779.59;;;24.32;58.33
18697;BME280;22617;43.690;27.956;2022-07-21T05:50:11;98791.78;;;24.50;55.84
18697;BME280;22617;43.690;27.956;2022-07-21T05:55:16;98789.75;;;24.68;56.15
18697;BME280;22617;43.690;27.956;2022-07-21T06:00:21;98803.03;;;24.82;55.34
18697;BME280;22617;43.690;27.956;2022-07-21T06:05:26;98802.72;;;25.01;53.84
18697;BME280;22617;43.690;27.956;2022-07-21T06:10:30;98794.66;;;25.15;54.46
18697;BME280;22617;43.690;27.956;2022-07-21T06:15:36;98792.16;;;25.39;54.20
18697;BME280;22617;43.690;27.956;2022-07-21T06:20:41;98792.19;;;25.51;53.52
18697;BME280;22617;43.690;27.956;2022-07-21T06:25:45;98787.19;;;25.59;52.63
18697;BME280;22617;43.690;27.956;2022-07-21T06:30:51;98785.84;;;25.79;51.96
18697;BME280;22617;43.690;27.956;2022-07-21T06:35:56;98791.91;;;26.07;53.25
18697;BME280;22617;43.690;27.956;2022-07-21T06:41:00;98793.09;;;26.28;51.73
18697;BME280;22617;43.690;27.956;2022-07-21T06:46:06;98795.69;;;26.53;52.33
18697;BME280;22617;43.690;27.956;2022-07-21T06:51:11;98791.66;;;26.84;52.01
18697;BME280;22617;43.690;27.956;2022-07-21T06:56:17;98794.13;;;27.11;52.04
18697;BME280;22617;43.690;27.956;2022-07-21T07:01:23;98791.97;;;27.16;51.60
18697;BME280;22617;43.690;27.956;2022-07-21T07:06:28;98792.09;;;27.14;51.69
18697;BME280;22617;43.690;27.956;2022-07-21T07:11:33;98780.81;;;27.22;50.59
18697;BME280;22617;43.690;27.956;2022-07-21T07:16:40;98788.25;;;27.29;49.42
18697;BME280;22617;43.690;27.956;2022-07-21T07:21:44;98785.19;;;27.58;49.07
18697;BME280;22617;43.690;27.956;2022-07-21T07:26:49;98790.47;;;27.70;50.70
18697;BME280;22617;43.690;27.956;2022-07-21T07:31:55;98783.53;;;27.79;49.13
18697;BME280;22617;43.690;27.956;2022-07-21T07:37:00;98786.41;;;28.11;48.26
18697;BME280;22617;43.690;27.956;2022-07-21T07:42:05;98786.78;;;28.29;48.60
18697;BME280;22617;43.690;27.956;2022-07-21T07:47:11;98790.31;;;28.40;47.95
18697;BME280;22617;43.690;27.956;2022-07-21T07:52:16;98792.75;;;28.43;47.93
18697;BME280;22617;43.690;27.956;2022-07-21T07:57:21;98786.22;;;28.68;48.03
18697;BME280;22617;43.690;27.956;2022-07-21T08:02:28;98795.75;;;28.83;46.45
18697;BME280;22617;43.690;27.956;2022-07-21T08:07:32;98789.72;;;29.02;47.49
18697;BME280;22617;43.690;27.956;2022-07-21T08:12:37;98789.81;;;28.46;46.19
18697;BME280;22617;43.690;27.956;2022-07-21T08:17:42;98791.16;;;28.52;46.08
18697;BME280;22617;43.690;27.956;2022-07-21T08:22:47;98796.13;;;28.79;45.78
18697;BME280;22617;43.690;27.956;2022-07-21T08:27:51;98791.88;;;29.19;46.57
18697;BME280;22617;43.690;27.956;2022-07-21T08:32:58;98798.28;;;29.28;46.73
18697;BME280;22617;43.690;27.956;2022-07-21T08:38:04;98784.94;;;29.49;45.53
18697;BME280;22617;43.690;27.956;2022-07-21T08:43:09;98794.97;;;29.67;45.14
18697;BME280;22617;43.690;27.956;2022-07-21T08:48:17;98788.53;;;30.00;46.57
18697;BME280;22617;43.690;27.956;2022-07-21T08:53:27;98784.59;;;30.04;46.09
18697;BME280;22617;43.690;27.956;2022-07-21T08:58:32;98784.25;;;30.49;47.05
18697;BME280;22617;43.690;27.956;2022-07-21T09:03:39;98773.41;;;30.60;45.36
18697;BME280;22617;43.690;27.956;2022-07-21T09:08:45;98786.75;;;30.41;44.98
18697;BME280;22617;43.690;27.956;2022-07-21T09:14:06;98776.34;;;30.57;44.78
18697;BME280;22617;43.690;27.956;2022-07-21T09:19:18;98787.47;;;30.92;45.20
18697;BME280;22617;43.690;27.956;2022-07-21T09:24:24;98773.16;;;30.92;43.99
18697;BME280;22617;43.690;27.956;2022-07-21T09:29:35;98777.22;;;30.67;43.52
18697;BME280;22617;43.690;27.956;2022-07-21T09:34:42;98778.97;;;30.87;43.11
18697;BME280;22617;43.690;27.956;2022-07-21T09:39:48;98769.53;;;31.31;43.18
18697;BME280;22617;43.690;27.956;2022-07-21T09:44:55;98776.25;;;30.68;43.13
18697;BME280;22617;43.690;27.956;2022-07-21T09:50:03;98773.22;;;30.21;44.73
18697;BME280;22617;43.690;27.956;2022-07-21T09:55:27;98773.75;;;30.46;43.99
18697;BME280;22617;43.690;27.956;2022-07-21T10:00:34;98771.44;;;30.01;44.37
18697;BME280;22617;43.690;27.956;2022-07-21T10:05:40;98779.38;;;30.12;44.10
18697;BME280;22617;43.690;27.956;2022-07-21T10:10:44;98787.00;;;30.38;44.23
18697;BME280;22617;43.690;27.956;2022-07-21T10:16:11;98780.78;;;30.37;43.99
18697;BME280;22617;43.690;27.956;2022-07-21T10:21:29;98786.44;;;30.64;44.15
18697;BME280;22617;43.690;27.956;2022-07-21T10:26:35;98768.19;;;30.87;42.67
18697;BME280;22617;43.690;27.956;2022-07-21T10:31:42;98777.75;;;31.30;43.28
18697;BME280;22617;43.690;27.956;2022-07-21T10:36:48;98770.72;;;31.94;42.91
18697;BME280;22617;43.690;27.956;2022-07-21T10:41:57;98766.66;;;31.71;43.01
18697;BME280;22617;43.690;27.956;2022-07-21T10:47:06;98778.25;;;31.91;41.93
18697;BME280;22617;43.690;27.956;2022-07-21T10:58:25;98776.94;;;32.04;42.56
18697;BME280;22617;43.690;27.956;2022-07-21T11:03:31;98775.09;;;32.05;40.44
18697;BME280;22617;43.690;27.956;2022-07-21T11:08:37;98775.78;;;31.12;41.52
18697;BME280;22617;43.690;27.956;2022-07-21T11:14:01;98778.88;;;30.49;43.62
18697;BME280;22617;43.690;27.956;2022-07-21T11:19:05;98784.53;;;29.95;43.56
18697;BME280;22617;43.690;27.956;2022-07-21T11:24:17;98771.50;;;29.90;41.80
18697;BME280;22617;43.690;27.956;2022-07-21T11:29:24;98780.94;;;30.85;40.74
18697;BME280;22617;43.690;27.956;2022-07-21T11:34:44;98769.09;;;31.74;39.80
18697;BME280;22617;43.690;27.956;2022-07-21T11:39:50;98786.88;;;32.04;39.05
18697;BME280;22617;43.690;27.956;2022-07-21T11:44:55;98767.88;;;32.42;39.57
18697;BME280;22617;43.690;27.956;2022-07-21T11:50:03;98772.75;;;32.29;37.59
18697;BME280;22617;43.690;27.956;2022-07-21T11:55:10;98782.00;;;31.71;39.34
18697;BME280;22617;43.690;27.956;2022-07-21T12:00:17;98762.59;;;32.04;39.81
18697;BME280;22617;43.690;27.956;2022-07-21T12:05:23;98759.09;;;32.68;39.96
18697;BME280;22617;43.690;27.956;2022-07-21T12:10:29;98763.53;;;32.86;40.04
18697;BME280;22617;43.690;27.956;2022-07-21T12:15:44;98755.84;;;32.37;37.73
18697;BME280;22617;43.690;27.956;2022-07-21T12:21:23;98753.09;;;32.47;38.43
18697;BME280;22617;43.690;27.956;2022-07-21T12:26:27;98747.97;;;33.16;38.25
18697;BME280;22617;43.690;27.956;2022-07-21T12:31:35;98743.63;;;32.87;36.00
18697;BME280;22617;43.690;27.956;2022-07-21T12:36:41;98751.66;;;32.79;38.87
18697;BME280;22617;43.690;27.956;2022-07-21T12:41:45;98734.34;;;32.72;43.86
18697;BME280;22617;43.690;27.956;2022-07-21T12:46:51;98739.13;;;32.78;42.04
18697;BME280;22617;43.690;27.956;2022-07-21T12:51:56;98746.84;;;32.73;43.46
18697;BME280;22617;43.690;27.956;2022-07-21T12:57:01;98746.06;;;32.63;44.53
18697;BME280;22617;43.690;27.956;2022-07-21T13:02:13;98738.66;;;32.65;45.27
18697;BME280;22617;43.690;27.956;2022-07-21T13:07:18;98740.03;;;32.05;44.12
18697;BME280;22617;43.690;27.956;2022-07-21T13:12:22;98743.00;;;31.65;45.97
18697;BME280;22617;43.690;27.956;2022-07-21T13:17:27;98740.56;;;30.85;46.74
18697;BME280;22617;43.690;27.956;2022-07-21T13:22:31;98743.63;;;30.12;47.04
18697;BME280;22617;43.690;27.956;2022-07-21T13:27:36;98738.72;;;29.55;47.34
18697;BME280;22617;43.690;27.956;2022-07-21T13:32:43;98750.38;;;29.12;49.18
18697;BME280;22617;43.690;27.956;2022-07-21T13:37:48;98743.38;;;29.00;49.46
18697;BME280;22617;43.690;27.956;2022-07-21T13:42:53;98745.44;;;28.42;49.81
18697;BME280;22617;43.690;27.956;2022-07-21T13:48:19;98754.41;;;28.63;49.78
18697;BME280;22617;43.690;27.956;2022-07-21T13:53:23;98751.53;;;28.44;50.57
18697;BME280;22617;43.690;27.956;2022-07-21T13:58:27;98747.00;;;28.56;50.89
18697;BME280;22617;43.690;27.956;2022-07-21T14:03:33;98751.06;;;28.39;51.25
18697;BME280;22617;43.690;27.956;2022-07-21T14:08:38;98751.81;;;28.19;51.84
18697;BME280;22617;43.690;27.956;2022-07-21T14:13:44;98753.28;;;28.34;52.68
18697;BME280;22617;43.690;27.956;2022-07-21T14:18:49;98746.66;;;28.49;50.89
18697;BME280;22617;43.690;27.956;2022-07-21T14:23:54;98737.56;;;28.84;50.70
18697;BME280;22617;43.690;27.956;2022-07-21T14:29:14;98740.09;;;28.96;50.09
18697;BME280;22617;43.690;27.956;2022-07-21T14:34:19;98738.09;;;29.10;50.16
18697;BME280;22617;43.690;27.956;2022-07-21T14:39:24;98736.78;;;28.50;50.03
18697;BME280;22617;43.690;27.956;2022-07-21T14:44:28;98737.41;;;27.98;51.09
18697;BME280;22617;43.690;27.956;2022-07-21T14:49:33;98736.72;;;28.18;50.94
18697;BME280;22617;43.690;27.956;2022-07-21T14:54:38;98737.91;;;28.36;51.11
18697;BME280;22617;43.690;27.956;2022-07-21T14:59:43;98733.22;;;28.49;50.48
18697;BME280;22617;43.690;27.956;2022-07-21T15:04:49;98732.31;;;28.28;50.48
18697;BME280;22617;43.690;27.956;2022-07-21T15:09:53;98734.25;;;28.48;49.99
18697;BME280;22617;43.690;27.956;2022-07-21T15:14:58;98730.50;;;28.29;49.76
18697;BME280;22617;43.690;27.956;2022-07-21T15:20:07;98730.31;;;27.97;50.50
18697;BME280;22617;43.690;27.956;2022-07-21T15:25:15;98727.06;;;28.04;50.36
18697;BME280;22617;43.690;27.956;2022-07-21T15:30:28;98728.28;;;27.89;51.66
18697;BME280;22617;43.690;27.956;2022-07-21T15:35:33;98733.97;;;27.73;50.76
18697;BME280;22617;43.690;27.956;2022-07-21T15:40:37;98733.09;;;27.51;51.37
18697;BME280;22617;43.690;27.956;2022-07-21T15:45:42;98741.88;;;27.53;50.85
18697;BME280;22617;43.690;27.956;2022-07-21T15:50:48;98735.94;;;27.37;51.59
18697;BME280;22617;43.690;27.956;2022-07-21T15:55:52;98739.53;;;27.24;51.73
18697;BME280;22617;43.690;27.956;2022-07-21T16:00:57;98747.22;;;27.18;52.66
18697;BME280;22617;43.690;27.956;2022-07-21T16:06:02;98753.72;;;27.03;52.82
18697;BME280;22617;43.690;27.956;2022-07-21T16:11:07;98750.53;;;26.37;58.01
18697;BME280;22617;43.690;27.956;2022-07-21T16:16:11;98746.16;;;26.24;59.20
18697;BME280;22617;43.690;27.956;2022-07-21T16:21:17;98763.28;;;25.83;60.49
18697;BME280;22617;43.690;27.956;2022-07-21T16:26:21;98761.63;;;25.43;62.19
18697;BME280;22617;43.690;27.956;2022-07-21T16:31:25;98764.31;;;25.03;63.33
18697;BME280;22617;43.690;27.956;2022-07-21T16:36:33;98773.69;;;24.96;63.56
18697;BME280;22617;43.690;27.956;2022-07-21T16:41:38;98767.41;;;24.83;63.69
18697;BME280;22617;43.690;27.956;2022-07-21T16:46:42;98776.91;;;24.60;63.01
18697;BME280;22617;43.690;27.956;2022-07-21T16:51:48;98777.63;;;24.76;61.64
18697;BME280;22617;43.690;27.956;2022-07-21T16:56:53;98777.69;;;24.75;60.88
18697;BME280;22617;43.690;27.956;2022-07-21T17:01:57;98786.84;;;24.44;62.00
18697;BME280;22617;43.690;27.956;2022-07-21T17:07:04;98787.63;;;24.18;63.76
18697;BME280;22617;43.690;27.956;2022-07-21T17:12:09;98790.38;;;24.02;64.47
18697;BME280;22617;43.690;27.956;2022-07-21T17:17:14;98787.59;;;23.89;64.06
18697;BME280;22617;43.690;27.956;2022-07-21T17:22:19;98788.94;;;23.82;64.43
18697;BME280;22617;43.690;27.956;2022-07-21T17:27:24;98789.94;;;23.80;64.81
18697;BME280;22617;43.690;27.956;2022-07-21T17:32:29;98780.78;;;23.56;65.78
18697;BME280;22617;43.690;27.956;2022-07-21T17:37:36;98791.19;;;23.30;66.92
18697;BME280;22617;43.690;27.956;2022-07-21T17:42:42;98786.75;;;23.15;67.71
18697;BME280;22617;43.690;27.956;2022-07-21T17:47:47;98782.84;;;23.07;67.82
18697;BME280;22617;43.690;27.956;2022-07-21T17:52:55;98787.97;;;22.94;68.59
18697;BME280;22617;43.690;27.956;2022-07-21T17:57:59;98793.25;;;23.25;67.64
18697;BME280;22617;43.690;27.956;2022-07-21T18:03:20;98786.53;;;22.88;68.81
18697;BME280;22617;43.690;27.956;2022-07-21T18:08:26;98798.63;;;22.94;68.68
18697;BME280;22617;43.690;27.956;2022-07-21T18:13:30;98793.97;;;22.97;68.29
18697;BME280;22617;43.690;27.956;2022-07-21T18:18:36;98803.13;;;22.78;68.84
18697;BME280;22617;43.690;27.956;2022-07-21T18:23:42;98816.63;;;22.89;68.49
18697;BME280;22617;43.690;27.956;2022-07-21T18:28:46;98810.72;;;22.68;68.83
18697;BME280;22617;43.690;27.956;2022-07-21T18:33:50;98811.22;;;22.43;69.60
18697;BME280;22617;43.690;27.956;2022-07-21T18:38:57;98809.50;;;22.42;69.09
18697;BME280;22617;43.690;27.956;2022-07-21T18:44:01;98811.44;;;22.23;69.61
18697;BME280;22617;43.690;27.956;2022-07-21T18:49:05;98815.03;;;22.22;69.24
18697;BME280;22617;43.690;27.956;2022-07-21T18:54:11;98815.28;;;22.17;69.68
18697;BME280;22617;43.690;27.956;2022-07-21T18:59:16;98823.13;;;22.03;69.88
18697;BME280;22617;43.690;27.956;2022-07-21T19:04:20;98818.97;;;22.15;69.34
18697;BME280;22617;43.690;27.956;2022-07-21T19:09:27;98820.88;;;22.29;68.70
18697;BME280;22617;43.690;27.956;2022-07-21T19:14:31;98824.28;;;22.15;69.00
18697;BME280;22617;43.690;27.956;2022-07-21T19:19:35;98822.69;;;22.11;69.01
18697;BME280;22617;43.690;27.956;2022-07-21T19:24:42;98820.41;;;22.05;69.62
18697;BME280;22617;43.690;27.956;2022-07-21T19:29:46;98828.22;;;21.73;70.00
18697;BME280;22617;43.690;27.956;2022-07-21T19:34:50;98820.25;;;21.73;70.17
18697;BME280;22617;43.690;27.956;2022-07-21T19:39:56;98820.34;;;21.55;70.78
18697;BME280;22617;43.690;27.956;2022-07-21T19:45:00;98818.09;;;21.47;71.40
18697;BME280;22617;43.690;27.956;2022-07-21T19:50:06;98821.81;;;21.26;71.80
18697;BME280;22617;43.690;27.956;2022-07-21T19:55:12;98824.09;;;21.34;72.04
18697;BME280;22617;43.690;27.956;2022-07-21T20:00:18;98816.22;;;21.32;71.69
18697;BME280;22617;43.690;27.956;2022-07-21T20:05:23;98816.63;;;21.24;72.75
18697;BME280;22617;43.690;27.956;2022-07-21T20:10:29;98815.59;;;21.44;71.59
18697;BME280;22617;43.690;27.956;2022-07-21T20:15:35;98815.19;;;21.35;71.74
18697;BME280;22617;43.690;27.956;2022-07-21T20:20:40;98816.63;;;21.06;72.89
18697;BME280;22617;43.690;27.956;2022-07-21T20:25:46;98816.94;;;21.00;72.52
18697;BME280;22617;43.690;27.956;2022-07-21T20:31:10;98820.13;;;21.06;72.37
18697;BME280;22617;43.690;27.956;2022-07-21T20:36:14;98811.78;;;20.97;72.62
18697;BME280;22617;43.690;27.956;2022-07-21T20:41:20;98827.84;;;21.11;72.35
18697;BME280;22617;43.690;27.956;2022-07-21T20:47:16;98829.09;;;20.49;73.64
18697;BME280;22617;43.690;27.956;2022-07-21T20:52:21;98822.84;;;20.69;73.56
18697;BME280;22617;43.690;27.956;2022-07-21T20:57:26;98830.34;;;20.78;73.18
18697;BME280;22617;43.690;27.956;2022-07-21T21:02:31;98829.91;;;20.87;72.59
18697;BME280;22617;43.690;27.956;2022-07-21T21:07:35;98830.78;;;20.87;72.70
18697;BME280;22617;43.690;27.956;2022-07-21T21:12:41;98833.69;;;20.81;72.44
18697;BME280;22617;43.690;27.956;2022-07-21T21:17:49;98836.22;;;20.84;73.14
18697;BME280;22617;43.690;27.956;2022-07-21T21:22:53;98832.19;;;20.95;72.77
18697;BME280;22617;43.690;27.956;2022-07-21T21:27:59;98832.28;;;20.74;73.49
18697;BME280;22617;43.690;27.956;2022-07-21T21:33:03;98829.72;;;20.73;73.71
18697;BME280;22617;43.690;27.956;2022-07-21T21:38:07;98825.44;;;20.70;73.46
18697;BME280;22617;43.690;27.956;2022-07-21T21:43:16;98821.00;;;20.71;73.51
18697;BME280;22617;43.690;27.956;2022-07-21T21:48:22;98819.78;;;20.40;74.27
18697;BME280;22617;43.690;27.956;2022-07-21T21:53:26;98823.72;;;20.32;75.53
18697;BME280;22617;43.690;27.956;2022-07-21T21:58:32;98809.25;;;20.39;75.16
18697;BME280;22617;43.690;27.956;2022-07-21T22:03:36;98809.78;;;20.08;76.17
18697;BME280;22617;43.690;27.956;2022-07-21T22:08:41;98798.41;;;20.06;76.48
18697;BME280;22617;43.690;27.956;2022-07-21T22:13:47;98797.72;;;20.21;76.41
18697;BME280;22617;43.690;27.956;2022-07-21T22:18:51;98799.38;;;20.24;76.17
18697;BME280;22617;43.690;27.956;2022-07-21T22:23:58;98812.19;;;20.14;75.46
18697;BME280;22617;43.690;27.956;2022-07-21T22:29:04;98801.16;;;20.05;75.55
18697;BME280;22617;43.690;27.956;2022-07-21T22:34:09;98801.84;;;19.89;75.35
18697;BME280;22617;43.690;27.956;2022-07-21T22:39:13;98806.44;;;20.05;75.76
18697;BME280;22617;43.690;27.956;2022-07-21T22:44:19;98806.78;;;20.16;75.04
18697;BME280;22617;43.690;27.956;2022-07-21T22:49:23;98801.75;;;20.10;74.15
18697;BME280;22617;43.690;27.956;2022-07-21T22:54:27;98801.59;;;20.14;74.72
18697;BME280;22617;43.690;27.956;2022-07-21T22:59:33;98798.94;;;20.14;74.41
18697;BME280;22617;43.690;27.956;2022-07-21T23:04:37;98799.13;;;20.10;74.85
18697;BME280;22617;43.690;27.956;2022-07-21T23:09:41;98804.03;;;20.19;74.52
18697;BME280;22617;43.690;27.956;2022-07-21T23:14:47;98796.84;;;20.02;74.01
18697;BME280;22617;43.690;27.956;2022-07-21T23:19:50;98806.72;;;19.98;74.51
18697;BME280;22617;43.690;27.956;2022-07-21T23:24:55;98808.81;;;19.90;74.00
18697;BME280;22617;43.690;27.956;2022-07-21T23:30:00;98809.41;;;19.97;74.25
18697;BME280;22617;43.690;27.956;2022-07-21T23:35:06;98808.78;;;20.11;73.74
18697;BME280;22617;43.690;27.956;2022-07-21T23:40:10;98808.22;;;20.04;73.67
18697;BME280;22617;43.690;27.956;2022-07-21T23:45:16;98811.47;;;19.90;73.58
18697;BME280;22617;43.690;27.956;2022-07-21T23:50:20;98809.38;;;19.78;72.93
18697;BME280;22617;43.690;27.956;2022-07-21T23:55:24;98808.47;;;19.79;73.02
